createdAt,value
2023-04-30T00:19:40.827Z,6.80
2023-04-30T00:22:10.766Z,6.60
2023-04-30T00:24:39.133Z,6.60
2023-04-30T00:27:07.433Z,6.60
2023-04-30T00:29:35.763Z,6.70
2023-04-30T00:32:04.422Z,6.50
2023-04-30T00:34:32.680Z,6.50
2023-04-30T00:37:00.968Z,6.50
2023-04-30T00:39:30.696Z,6.40
2023-04-30T00:41:58.972Z,6.40
2023-04-30T01:27:16.786Z,6.30
2023-04-30T01:29:46.499Z,6.10
2023-04-30T03:29:51.245Z,6.20
2023-04-30T03:32:19.558Z,5.70
2023-04-30T03:34:47.968Z,5.60
2023-04-30T05:36:34.049Z,5.50
2023-04-30T05:39:04.475Z,8.60
2023-04-30T05:41:32.874Z,8.60
2023-04-30T05:49:02.234Z,8.70
2023-04-30T05:51:32.678Z,9.20
2023-04-30T05:54:01.313Z,9.30
2023-04-30T05:58:58.307Z,9.60
2023-04-30T06:01:28.876Z,9.80
2023-04-30T06:03:58.710Z,9.80
2023-04-30T06:08:56.443Z,9.90
2023-04-30T06:11:25.631Z,10.10
2023-04-30T06:13:54.148Z,10.20
2023-04-30T06:16:22.642Z,10.40
2023-04-30T06:18:53.503Z,10.40
2023-04-30T06:21:26.143Z,10.40
2023-04-30T06:23:54.447Z,10.40
2023-04-30T06:26:22.750Z,10.50
2023-04-30T07:03:38.770Z,10.60
2023-04-30T07:06:07.577Z,12.20
2023-04-30T07:08:35.971Z,12.40
2023-04-30T07:11:04.478Z,12.70
2023-04-30T07:13:35.266Z,12.70
2023-04-30T07:16:03.638Z,12.70
2023-04-30T07:18:32.129Z,13.10
2023-04-30T07:21:00.578Z,13.40
2023-04-30T07:48:21.422Z,13.50
2023-04-30T07:53:21.329Z,14.20
2023-04-30T07:55:49.698Z,14.90
2023-04-30T07:58:18.154Z,15.00
2023-04-30T08:00:46.532Z,14.80
2023-04-30T08:03:14.922Z,14.60
2023-04-30T08:05:44.771Z,14.80
2023-04-30T08:08:13.027Z,14.90
2023-04-30T08:10:42.034Z,15.30
2023-04-30T08:13:10.485Z,15.80
2023-04-30T08:23:08.559Z,16.00
2023-04-30T08:25:37.199Z,16.30
2023-04-30T08:28:05.836Z,16.30
2023-04-30T08:30:34.215Z,16.20
2023-04-30T08:33:02.608Z,16.30
2023-04-30T08:35:31.104Z,16.40
2023-04-30T08:37:59.426Z,16.40
2023-04-30T08:40:49.335Z,16.50
2023-04-30T08:43:19.307Z,16.90
2023-04-30T08:45:47.725Z,16.70
2023-04-30T10:16:02.351Z,17.20
2023-04-30T10:18:35.174Z,19.20
2023-04-30T10:21:10.347Z,18.90
2023-04-30T10:26:08.249Z,18.90
2023-04-30T10:28:39.307Z,19.70
2023-04-30T10:31:10.872Z,19.60
2023-04-30T10:33:50.276Z,19.20
2023-04-30T10:36:27.854Z,19.70
2023-04-30T10:38:56.378Z,19.70
2023-04-30T10:41:27.513Z,19.30
2023-04-30T10:44:02.390Z,20.00
2023-04-30T10:46:30.892Z,20.20
2023-04-30T10:49:00.224Z,19.90
2023-04-30T10:51:46.576Z,19.90
2023-04-30T10:54:17.816Z,20.10
2023-04-30T10:56:47.866Z,20.30
2023-04-30T10:59:17.719Z,19.80
2023-04-30T11:02:00.281Z,20.10
2023-04-30T11:04:29.123Z,20.10
2023-04-30T11:07:04.869Z,19.60
2023-04-30T11:09:38.779Z,19.20
2023-04-30T11:12:12.934Z,19.30
2023-04-30T11:14:45.133Z,20.00
2023-04-30T11:17:23.175Z,20.10
2023-04-30T11:19:53.287Z,20.10
2023-04-30T11:22:26.456Z,20.10
2023-04-30T11:24:56.562Z,20.30
2023-04-30T11:27:26.246Z,20.30
2023-04-30T12:20:16.611Z,20.50
2023-04-30T12:22:45.766Z,21.20
2023-04-30T12:25:15.963Z,21.40
2023-04-30T12:27:47.519Z,20.90
2023-04-30T12:30:21.324Z,20.80
2023-04-30T12:32:52.553Z,21.20
2023-04-30T12:35:22.619Z,21.30
2023-04-30T12:37:53.137Z,21.30
2023-04-30T12:40:23.391Z,21.40
2023-04-30T12:42:51.756Z,21.50
2023-04-30T12:45:46.629Z,21.40
2023-04-30T12:48:17.107Z,21.60
2023-04-30T12:50:50.403Z,21.40
2023-04-30T12:53:18.773Z,21.60
2023-04-30T12:56:09.407Z,21.00
2023-04-30T12:58:38.829Z,20.80
2023-04-30T13:01:13.015Z,20.80
2023-04-30T13:03:42.296Z,21.00
2023-04-30T13:06:11.295Z,20.70
2023-04-30T13:08:56.226Z,20.50
2023-04-30T13:11:27.667Z,20.50
2023-04-30T13:13:56.860Z,20.60
2023-04-30T13:16:28.395Z,20.50
2023-04-30T13:18:56.874Z,20.30
2023-04-30T13:21:25.891Z,20.40
2023-04-30T13:23:55.265Z,20.70
2023-04-30T13:26:26.454Z,21.00
2023-04-30T13:28:54.882Z,21.30
2023-04-30T13:31:23.664Z,21.60
2023-04-30T13:33:56.142Z,21.60
2023-04-30T13:36:24.652Z,21.40
2023-04-30T13:38:53.235Z,21.30
2023-04-30T13:41:22.100Z,21.10
2023-04-30T13:43:50.896Z,21.20
2023-04-30T13:46:19.428Z,21.20
2023-04-30T13:48:48.338Z,21.10
2023-04-30T13:51:18.066Z,21.10
2023-04-30T13:53:46.870Z,21.50
2023-04-30T13:56:16.474Z,21.50
2023-04-30T13:58:44.848Z,21.10
2023-04-30T14:01:14.430Z,20.70
2023-04-30T14:03:43.184Z,20.70
2023-04-30T14:06:12.800Z,20.50
2023-04-30T14:09:01.062Z,20.70
2023-04-30T14:11:30.846Z,20.70
2023-04-30T14:13:59.217Z,21.10
2023-04-30T14:16:28.926Z,21.20
2023-04-30T14:18:57.362Z,21.30
2023-04-30T14:21:25.763Z,21.20
2023-04-30T14:23:54.149Z,20.90
2023-04-30T14:26:22.773Z,20.90
2023-04-30T14:28:52.605Z,20.50
2023-04-30T14:34:39.960Z,20.10
2023-04-30T14:43:09.786Z,20.50
2023-04-30T14:45:53.717Z,20.80
2023-04-30T14:48:22.172Z,21.00
2023-04-30T14:50:51.736Z,21.00
2023-04-30T14:53:20.100Z,20.90
2023-04-30T14:55:48.491Z,20.60
2023-04-30T14:58:16.894Z,20.50
2023-04-30T15:00:47.213Z,20.60
2023-04-30T15:03:19.661Z,20.70
2023-04-30T15:05:55.358Z,20.50
2023-04-30T15:12:11.216Z,20.30
2023-04-30T15:14:45.917Z,20.10
2023-04-30T15:17:15.848Z,19.80
2023-04-30T15:19:45.127Z,19.50
2023-04-30T15:22:14.594Z,19.70
2023-04-30T15:24:42.957Z,19.80
2023-04-30T15:27:11.312Z,19.70
2023-04-30T15:29:43.044Z,19.40
2023-04-30T15:32:11.344Z,19.40
2023-04-30T15:34:41.208Z,19.40
2023-04-30T15:37:12.140Z,19.20
2023-04-30T15:39:40.817Z,19.10
2023-04-30T15:42:09.175Z,18.90
2023-04-30T15:48:29.401Z,18.70
2023-04-30T15:52:33.981Z,18.70
2023-04-30T15:55:08.072Z,18.80
2023-04-30T16:03:46.141Z,18.90
2023-04-30T16:06:14.564Z,19.00
2023-04-30T16:08:43.450Z,18.70
2023-04-30T16:11:13.687Z,18.50
2023-04-30T16:13:41.994Z,18.30
2023-04-30T16:16:11.156Z,18.30
2023-04-30T16:18:39.597Z,18.40
2023-04-30T16:25:20.941Z,18.40
2023-04-30T16:27:54.339Z,18.30
2023-04-30T16:30:22.786Z,18.40
2023-04-30T16:32:51.078Z,18.60
2023-04-30T16:35:19.562Z,19.10
2023-04-30T16:37:47.907Z,19.60
2023-04-30T16:40:16.237Z,19.90
2023-04-30T16:42:44.997Z,20.10
2023-04-30T16:45:15.007Z,20.10
2023-04-30T16:47:43.579Z,19.90
2023-04-30T16:50:12.263Z,19.50
2023-04-30T16:52:40.541Z,19.00
2023-04-30T16:55:10.356Z,18.60
2023-04-30T16:57:38.786Z,18.40
2023-04-30T17:00:08.893Z,18.20
2023-04-30T17:02:40.887Z,18.10
2023-04-30T17:05:10.980Z,17.90
2023-04-30T17:07:39.497Z,17.80
2023-04-30T17:24:07.060Z,17.50
2023-04-30T17:29:59.368Z,17.60
2023-04-30T17:32:28.741Z,17.50
2023-04-30T17:34:57.900Z,17.50
2023-04-30T17:37:26.442Z,17.50
2023-04-30T17:39:56.313Z,17.60
2023-04-30T17:42:24.909Z,17.60
2023-04-30T17:45:00.709Z,17.60
2023-04-30T17:47:29.191Z,17.60
2023-04-30T17:49:58.045Z,17.60
2023-04-30T17:52:29.381Z,17.60
2023-04-30T17:54:59.917Z,17.60
2023-04-30T17:57:28.350Z,17.50
2023-04-30T17:59:57.136Z,17.40
2023-04-30T18:02:43.717Z,17.40
2023-04-30T18:05:12.860Z,17.40
2023-04-30T18:07:41.323Z,17.40
2023-04-30T18:10:11.512Z,17.30
2023-04-30T18:12:39.956Z,17.30
2023-04-30T18:15:09.561Z,17.30
2023-04-30T18:17:37.941Z,17.20
2023-04-30T18:22:42.405Z,17.20
2023-04-30T18:25:13.785Z,16.90
2023-04-30T18:27:42.497Z,16.90
2023-04-30T18:30:12.684Z,16.80
2023-04-30T18:32:41.895Z,16.70
2023-04-30T18:37:39.379Z,16.70
2023-04-30T18:40:08.947Z,16.50
2023-04-30T18:42:38.850Z,16.40
2023-04-30T18:45:09.236Z,16.30
2023-04-30T18:47:37.610Z,16.30
2023-04-30T18:50:07.529Z,16.20
2023-04-30T18:52:35.911Z,16.10
2023-04-30T18:55:06.530Z,15.90
2023-04-30T18:57:34.933Z,15.90
2023-04-30T19:00:05.189Z,15.80
2023-04-30T19:02:33.648Z,15.70
2023-04-30T19:05:02.234Z,15.60
2023-04-30T19:10:00.198Z,15.50
2023-04-30T19:12:28.566Z,15.40
2023-04-30T19:22:24.944Z,15.20
2023-04-30T19:24:53.348Z,14.90
2023-04-30T19:27:21.753Z,14.90
2023-04-30T19:29:50.101Z,14.80
2023-04-30T19:37:17.281Z,14.80
2023-04-30T19:42:14.242Z,14.50
2023-04-30T19:44:43.450Z,14.40
2023-04-30T19:47:11.791Z,14.30
2023-04-30T19:49:40.073Z,14.10
2023-04-30T19:52:09.825Z,14.00
2023-04-30T19:54:38.261Z,13.80
2023-04-30T19:57:10.584Z,13.70
2023-04-30T19:59:39.005Z,13.70
2023-04-30T20:02:08.072Z,13.70
2023-04-30T20:04:37.549Z,13.70
2023-04-30T20:07:06.318Z,13.80
2023-04-30T20:09:37.351Z,13.90
2023-04-30T20:12:06.366Z,14.00
2023-04-30T20:14:34.664Z,14.10
2023-04-30T20:17:03.042Z,14.10
2023-04-30T20:19:32.242Z,14.20
2023-04-30T20:22:02.166Z,14.20
2023-04-30T20:24:30.531Z,14.30
2023-04-30T20:27:00.386Z,14.30
2023-04-30T20:29:29.409Z,14.30
2023-04-30T20:31:58.495Z,14.30
2023-04-30T20:34:26.855Z,14.40
2023-04-30T20:36:55.204Z,14.40
2023-04-30T20:39:24.349Z,14.40
2023-04-30T20:41:53.425Z,14.40
2023-04-30T20:44:23.126Z,14.50
2023-04-30T20:46:51.511Z,14.50
2023-04-30T20:49:19.840Z,14.50
2023-04-30T20:51:48.189Z,14.60
2023-04-30T20:54:16.552Z,14.50
2023-04-30T20:56:46.929Z,14.50
2023-04-30T20:59:16.509Z,14.60
2023-04-30T21:01:46.401Z,14.50
2023-04-30T21:04:15.039Z,14.60
2023-04-30T21:06:43.572Z,14.60
2023-04-30T21:09:12.548Z,14.60
2023-04-30T21:11:41.062Z,14.60
2023-04-30T21:14:10.090Z,14.60
2023-04-30T21:16:40.767Z,14.50
2023-04-30T21:19:11.140Z,14.50
2023-04-30T21:21:39.732Z,14.50
2023-04-30T21:24:08.925Z,14.50
2023-04-30T21:26:37.275Z,14.50
2023-04-30T21:29:05.668Z,14.50
2023-04-30T21:31:34.319Z,14.40
2023-04-30T21:34:02.724Z,14.40
2023-04-30T21:36:32.642Z,14.30
2023-04-30T21:39:01.278Z,14.30
2023-04-30T21:41:30.322Z,14.30
2023-04-30T21:43:58.795Z,14.30
2023-04-30T21:46:27.227Z,14.30
2023-04-30T21:48:55.647Z,14.30
2023-04-30T21:51:24.002Z,14.20
2023-04-30T21:53:53.713Z,14.20
2023-04-30T21:56:22.042Z,14.10
2023-04-30T21:58:50.423Z,14.10
2023-04-30T22:01:19.913Z,14.10
2023-04-30T22:03:48.272Z,14.10
2023-04-30T22:06:16.797Z,14.10
2023-04-30T22:08:45.185Z,14.00
2023-04-30T22:11:15.001Z,14.00
2023-04-30T22:13:43.494Z,13.90
2023-04-30T22:16:12.355Z,13.90
2023-04-30T22:18:40.897Z,14.00
2023-04-30T22:21:09.297Z,14.00
2023-04-30T22:23:37.659Z,13.90
2023-04-30T22:26:09.767Z,13.90
2023-04-30T22:28:39.573Z,13.80
2023-04-30T22:31:07.970Z,13.70
2023-04-30T22:33:37.755Z,13.70
2023-04-30T22:36:07.287Z,13.60
2023-04-30T22:38:35.740Z,13.60
2023-04-30T22:41:04.730Z,13.60
2023-04-30T22:43:33.547Z,13.60
2023-04-30T22:46:03.468Z,13.70
2023-04-30T22:48:32.009Z,13.70
2023-04-30T22:51:00.445Z,13.70
2023-04-30T22:53:29.843Z,13.80
2023-04-30T22:55:58.532Z,13.80
2023-04-30T22:58:26.924Z,13.80
2023-04-30T23:00:55.337Z,13.80
2023-04-30T23:03:25.094Z,13.70
2023-04-30T23:05:53.791Z,13.80
2023-04-30T23:08:22.144Z,13.70
2023-04-30T23:10:50.604Z,13.70
2023-04-30T23:13:19.489Z,13.70
2023-04-30T23:15:48.053Z,13.60
2023-04-30T23:18:16.452Z,13.50
2023-04-30T23:20:46.130Z,13.60
2023-04-30T23:23:14.605Z,13.50
2023-04-30T23:25:43.011Z,13.40
2023-04-30T23:28:14.042Z,13.40
2023-04-30T23:30:42.309Z,13.40
2023-04-30T23:33:10.702Z,13.40
2023-04-30T23:35:42.802Z,13.30
2023-04-30T23:38:12.571Z,13.30
2023-04-30T23:40:42.438Z,13.30
2023-04-30T23:43:11.543Z,13.30
2023-04-30T23:45:42.595Z,13.20
2023-04-30T23:48:10.987Z,13.20
2023-04-30T23:50:39.326Z,13.10
2023-04-30T23:53:07.868Z,13.10
2023-04-30T23:55:38.053Z,13.10
2023-04-30T23:58:06.417Z,13.00
